Baudette, MN

23:06 CST le 22 décembre 2014 (GMT -0600)
Baudette International | Change Station
CLOSE
Current Station
Aéroport
Location: Baudette,
Altitude: 1083 ft
Stations météo à proximité

Alt. 1083 ft 48.73 °N, 94.61 °W | Updated 13 minutes ago

Couvert
Couvert
33 ° F
Paraît 29 ° F
N
5
Vent Variable Vent de Est

Aujourd'hui
Haut(e) -- | Bas -- ° F
--% Risque de précip.
Hier
Haut(e) -- | Bas -- ° F
Precip. -- pouce
8:09 AM 4:26 PM
Nouvelle lune, 2% visible
Pression 29.81 pouce
Visibilité 7.0 Miles terrestres
Nuages Couvert 400 ft
Refroidissement éolien 29 ° F
Point de rosée 32 ° F
Humidité 96%
Précipitations 0.02 pouce
Profondeur de la couche neigeuse Non disponible.
UV 0 sur 12
Pollen .10 sur 12
Qualité de l'air Non disponible.
Flu Activity Non disponible.
METAR KBDE 230453Z AUTO 08004KT 7SM -SN OVC004 01/00 A2976 RMK AO2 SNB25 SLP092 P0000 T00060000 TSNO

More Conditions Fewer Conditions

Pression 29.81 pouce
Visibilité 7.0 Miles terrestres
Nuages Couvert 400 ft
Refroidissement éolien 29 ° F
Point de rosée 32 ° F
Humidité 96%
Précipitations 0.02 pouce
Profondeur de la couche neigeuse Non disponible.
UV 0 sur 12
Pollen .10 sur 12
Qualité de l'air Non disponible.
Flu Activity Non disponible.
METAR KBDE 230453Z AUTO 08004KT 7SM -SN OVC004 01/00 A2976 RMK AO2 SNB25 SLP092 P0000 T00060000 TSNO

More Conditions Fewer Conditions

10-Day Weather Forecast

Almanac

Astronomie

Dec. 22, 2014 Lever Coucher
Temps réel
Crépuscule civil
Crépuscule nautique
Crépuscule astronomique
Lune
Durée de lumière visible
Longueur du jour
Tomorrow will be .
, % of the Moon is Illuminated

Extrêmes aujourd'hui

State Highs State Lows

Community

WunderPhotos

Upload Photos

1,779,780 Photos téléchargées !

WunderBlogs® & News

Nearby

Qualité de l'air

  Qualité de l'air Indice de la qualité de l'air Polluant
Not available.

Épaisseur de neige

Station Depth Altitude

Activité sismique

Ville Distance Mag. Time & Date
Minimum magnitude displayed is 2.5.

Températures des eaux côtières

Lieu Température

Stations météo à proximité